createdAt,value
2023-02-03T00:04:17.890Z,98687.03
2023-02-03T00:09:19.119Z,98686.19
2023-02-03T00:14:20.376Z,98675.88
2023-02-03T00:19:21.689Z,98677.53
2023-02-03T00:24:23.931Z,98674.97
2023-02-03T00:29:26.024Z,98680.13
2023-02-03T00:34:27.330Z,98675.06
2023-02-03T00:39:28.609Z,98675.91
2023-02-03T00:44:29.851Z,98665.63
2023-02-03T00:49:31.612Z,98678.44
2023-02-03T00:54:33.837Z,98676.75
2023-02-03T00:59:35.163Z,98681.06
2023-02-03T01:04:36.418Z,98681.00
2023-02-03T01:09:37.671Z,98672.44
2023-02-03T01:14:38.939Z,98657.06
2023-02-03T01:19:40.202Z,98657.09
2023-02-03T01:24:41.493Z,98658.78
2023-02-03T01:29:42.722Z,98658.78
2023-02-03T01:34:44.027Z,98662.25
2023-02-03T01:39:45.314Z,98664.78
2023-02-03T01:44:47.565Z,98663.91
2023-02-03T01:49:48.836Z,98656.19
2023-02-03T01:54:50.047Z,98651.06
2023-02-03T01:59:51.355Z,98646.72
2023-02-03T02:04:52.719Z,98637.38
2023-02-03T02:09:53.969Z,98645.97
2023-02-03T02:14:55.195Z,98632.28
2023-02-03T02:19:56.449Z,98615.13
2023-02-03T02:24:57.839Z,98601.38
2023-02-03T02:29:59.138Z,98594.59
2023-02-03T02:35:00.499Z,98595.44
2023-02-03T02:40:01.776Z,98594.56
2023-02-03T02:45:02.979Z,98585.94
2023-02-03T02:50:04.208Z,98598.81
2023-02-03T02:55:05.477Z,98583.38
2023-02-03T03:00:06.921Z,98585.84
2023-02-03T03:05:08.181Z,98591.91
2023-02-03T03:10:09.435Z,98586.78
2023-02-03T03:15:10.709Z,98584.13
2023-02-03T03:20:11.963Z,98588.44
2023-02-03T03:25:13.242Z,98572.06
2023-02-03T03:30:14.478Z,98558.31
2023-02-03T03:35:15.821Z,98580.66
2023-02-03T03:40:17.061Z,98608.84
2023-02-03T03:45:18.279Z,98613.09
2023-02-03T03:50:19.520Z,98622.47
2023-02-03T03:55:20.744Z,98614.81
2023-02-03T04:00:22.001Z,98590.03
2023-02-03T04:05:23.303Z,98578.75
2023-02-03T04:10:24.714Z,98614.75
2023-02-03T04:15:26.020Z,98645.72
2023-02-03T04:20:27.622Z,98637.94
2023-02-03T04:25:29.143Z,98643.94
2023-02-03T04:30:30.482Z,98623.41
2023-02-03T04:35:31.825Z,98620.75
2023-02-03T04:40:34.914Z,98607.91
2023-02-03T04:45:36.420Z,98603.63
2023-02-03T04:50:37.670Z,98609.63
2023-02-03T04:55:38.914Z,98588.25
2023-02-03T05:00:40.223Z,98579.53
2023-02-03T05:05:41.431Z,98565.03
2023-02-03T05:10:42.643Z,98559.94
2023-02-03T05:15:43.918Z,98565.03
2023-02-03T05:20:45.166Z,98574.50
2023-02-03T05:25:46.537Z,98578.63
2023-02-03T05:30:47.862Z,98598.38
2023-02-03T05:35:49.139Z,98567.59
2023-02-03T05:41:09.285Z,98573.56
2023-02-03T05:46:10.616Z,98568.38
2023-02-03T05:51:11.876Z,98581.28
2023-02-03T05:56:13.135Z,98588.13
2023-02-03T06:01:14.440Z,98576.22
2023-02-03T06:06:15.761Z,98579.53
2023-02-03T06:11:17.056Z,98592.47
2023-02-03T06:16:18.427Z,98590.84
2023-02-03T06:21:19.847Z,98583.88
2023-02-03T06:26:21.164Z,98594.28
2023-02-03T06:31:22.607Z,98566.03
2023-02-03T06:36:24.023Z,98544.50
2023-02-03T06:41:28.678Z,98542.03
2023-02-03T06:46:30.958Z,98538.53
2023-02-03T06:51:32.416Z,98541.91
2023-02-03T06:56:33.703Z,98521.34
2023-02-03T07:01:34.949Z,98525.66
2023-02-03T07:06:36.213Z,98518.72
2023-02-03T07:11:37.448Z,98515.31
2023-02-03T07:16:38.740Z,98521.38
2023-02-03T07:21:39.975Z,98532.44
2023-02-03T07:26:41.341Z,98538.53
2023-02-03T07:31:42.730Z,98540.09
2023-02-03T07:36:44.083Z,98526.50
2023-02-03T07:41:45.344Z,98551.34
2023-02-03T07:46:46.640Z,98543.28
2023-02-03T07:51:47.916Z,98565.59
2023-02-03T07:56:49.149Z,98524.47
2023-02-03T08:01:50.440Z,98533.19
2023-02-03T08:06:51.795Z,98521.22
2023-02-03T08:11:53.104Z,98549.38
2023-02-03T08:16:54.347Z,98549.41
2023-02-03T08:21:55.603Z,98510.91
2023-02-03T08:26:56.857Z,98530.50
2023-02-03T08:31:58.652Z,98529.69
2023-02-03T08:36:59.985Z,98521.09
2023-02-03T08:42:01.281Z,98509.94
2023-02-03T08:47:02.519Z,98495.19
2023-02-03T08:52:03.773Z,98498.59
2023-02-03T08:57:05.058Z,98506.44
2023-02-03T09:02:07.009Z,98501.38
2023-02-03T09:07:08.395Z,98484.75
2023-02-03T09:12:11.588Z,98502.81
2023-02-03T09:17:12.881Z,98506.31
2023-02-03T09:22:14.497Z,98489.16
2023-02-03T09:27:15.763Z,98485.69
2023-02-03T09:32:17.013Z,98485.72
2023-02-03T09:37:18.312Z,98488.09
2023-02-03T09:42:19.652Z,98502.72
2023-02-03T09:47:20.871Z,98508.66
2023-02-03T09:52:22.819Z,98496.69
2023-02-03T09:57:24.058Z,98496.66
2023-02-03T10:02:25.369Z,98506.13
2023-02-03T10:07:26.610Z,98483.06
2023-02-03T10:12:27.814Z,98483.97
2023-02-03T10:17:30.313Z,98483.72
2023-02-03T10:22:31.665Z,98481.25
2023-02-03T10:27:32.910Z,98489.00
2023-02-03T10:32:36.115Z,98503.56
2023-02-03T10:37:37.442Z,98492.41
2023-02-03T10:42:57.578Z,98489.78
2023-02-03T10:47:58.851Z,98466.50
2023-02-03T10:53:00.059Z,98429.34
2023-02-03T10:58:01.342Z,98419.00
2023-02-03T11:03:04.574Z,98427.56
2023-02-03T11:08:06.064Z,98418.53
2023-02-03T11:13:07.433Z,98413.16
2023-02-03T11:18:08.725Z,98398.56
2023-02-03T11:23:10.204Z,98377.81
2023-02-03T11:28:11.677Z,98378.66
2023-02-03T11:33:13.066Z,98350.31
2023-02-03T11:38:14.320Z,98341.22
2023-02-03T11:43:15.623Z,98330.88
2023-02-03T11:48:16.845Z,98313.56
2023-02-03T11:53:20.906Z,98302.41
2023-02-03T11:58:24.308Z,98306.81
2023-02-03T12:03:25.605Z,98293.66
2023-02-03T12:08:26.879Z,98310.84
2023-02-03T12:13:28.236Z,98300.63
2023-02-03T12:18:29.533Z,98294.34
2023-02-03T12:23:30.787Z,98289.44
2023-02-03T12:28:34.066Z,98303.06
2023-02-03T12:33:35.579Z,98303.13
2023-02-03T12:38:36.831Z,98295.63
2023-02-03T12:43:38.095Z,98304.22
2023-02-03T12:48:39.296Z,98311.88
2023-02-03T12:53:40.547Z,98288.59
2023-02-03T12:58:41.938Z,98248.22
2023-02-03T13:03:43.227Z,98204.28
2023-02-03T13:08:44.472Z,98216.53
2023-02-03T13:13:45.679Z,98200.91
2023-02-03T13:18:46.886Z,98173.47
2023-02-03T13:23:48.342Z,98170.34
2023-02-03T13:28:50.816Z,98150.56
2023-02-03T13:33:52.212Z,98170.78
2023-02-03T13:38:53.425Z,98206.84
2023-02-03T13:43:54.776Z,98123.47
2023-02-03T13:48:56.017Z,98126.00
2023-02-03T13:53:57.284Z,98130.31
2023-02-03T13:58:58.482Z,98127.84
2023-02-03T14:03:59.914Z,98091.81
2023-02-03T14:09:01.232Z,98092.53
2023-02-03T14:14:02.474Z,98067.53
2023-02-03T14:19:03.749Z,98069.28
2023-02-03T14:24:05.077Z,98080.91
2023-02-03T14:29:06.341Z,98110.03
2023-02-03T14:34:09.421Z,98136.81
2023-02-03T14:39:10.626Z,98129.91
2023-02-03T14:44:11.889Z,98152.19
2023-02-03T14:49:13.215Z,98175.09
2023-02-03T14:54:16.010Z,98170.91
2023-02-03T14:59:17.868Z,98194.19
2023-02-03T15:04:19.127Z,98181.31
2023-02-03T15:09:22.713Z,98196.84
2023-02-03T15:14:24.671Z,98190.66
2023-02-03T15:19:25.966Z,98203.78
2023-02-03T15:24:27.570Z,98208.84
2023-02-03T15:29:28.927Z,98207.09
2023-02-03T15:34:30.603Z,98217.47
2023-02-03T15:39:31.815Z,98205.44
2023-02-03T15:44:34.464Z,98185.81
2023-02-03T15:49:35.746Z,98188.28
2023-02-03T15:54:41.275Z,98182.84
2023-02-03T15:59:43.182Z,98180.38
2023-02-03T16:04:45.142Z,98157.22
2023-02-03T16:09:46.398Z,98164.91
2023-02-03T16:14:47.641Z,98146.75
2023-02-03T16:19:51.366Z,98176.13
2023-02-03T16:24:52.653Z,98150.19
2023-02-03T16:30:12.673Z,98153.72
2023-02-03T16:35:32.744Z,98154.66
2023-02-03T16:40:53.098Z,98107.31
2023-02-03T16:46:13.491Z,98070.31
2023-02-03T16:51:15.893Z,98073.94
2023-02-03T16:56:18.902Z,98117.56
2023-02-03T17:01:20.127Z,98147.50
2023-02-03T17:06:21.374Z,98148.28
2023-02-03T17:11:23.326Z,98167.94
2023-02-03T17:16:24.663Z,98193.59
2023-02-03T17:21:25.937Z,98199.69
2023-02-03T17:26:27.198Z,98187.22
2023-02-03T17:31:28.594Z,98214.84
2023-02-03T17:36:29.920Z,98201.13
2023-02-03T17:57:27.920Z,98194.16
2023-02-03T18:02:29.216Z,98193.50
2023-02-03T18:07:30.494Z,98193.59
2023-02-03T18:12:31.727Z,98191.06
2023-02-03T18:17:32.996Z,98187.56
2023-02-03T18:22:34.603Z,98203.75
2023-02-03T18:27:35.894Z,98202.13
2023-02-03T18:32:37.263Z,98214.00
2023-02-03T18:37:40.578Z,98219.09
2023-02-03T18:42:41.889Z,98235.41
2023-02-03T18:47:43.103Z,98240.13
2023-02-03T18:52:44.360Z,98239.31
2023-02-03T18:57:46.831Z,98252.19
2023-02-03T19:02:48.216Z,98244.34
2023-02-03T19:07:49.511Z,98252.13
2023-02-03T19:12:50.846Z,98258.13
2023-02-03T19:17:52.114Z,98249.72
2023-02-03T19:22:54.391Z,98245.41
2023-02-03T19:27:55.989Z,98240.50
2023-02-03T19:32:57.275Z,98244.00
2023-02-03T19:37:58.467Z,98257.56
2023-02-03T19:43:00.621Z,98243.88
2023-02-03T19:48:01.872Z,98246.53
2023-02-03T19:53:03.332Z,98244.03
2023-02-03T19:58:04.678Z,98245.81
2023-02-03T20:03:06.058Z,98265.47
2023-02-03T20:08:07.366Z,98280.19
2023-02-03T20:13:12.792Z,98278.19
2023-02-03T20:18:14.105Z,98278.91
2023-02-03T20:23:15.396Z,98291.75
2023-02-03T20:28:17.137Z,98309.72
2023-02-03T20:33:18.456Z,98303.53
2023-02-03T20:38:19.799Z,98318.03
2023-02-03T20:43:21.245Z,98313.53
2023-02-03T20:48:23.830Z,98312.94
2023-02-03T20:53:25.099Z,98312.75
2023-02-03T20:58:26.368Z,98311.72
2023-02-03T21:03:46.484Z,98313.31
2023-02-03T21:08:47.766Z,98304.19
2023-02-03T21:13:49.778Z,98290.31
2023-02-03T21:18:51.161Z,98279.09
2023-02-03T21:23:52.445Z,98288.69
2023-02-03T21:28:53.719Z,98282.63
2023-02-03T21:33:54.958Z,98266.44
2023-02-03T21:38:56.724Z,98261.88
2023-02-03T21:43:57.953Z,98267.03
2023-02-03T21:48:59.231Z,98272.13
2023-02-03T21:54:00.591Z,98277.75
2023-02-03T21:59:02.124Z,98289.03
2023-02-03T22:04:04.071Z,98291.44
2023-02-03T22:09:05.363Z,98302.75
2023-02-03T22:14:06.628Z,98302.84
2023-02-03T22:19:07.856Z,98309.13
2023-02-03T22:24:09.602Z,98325.50
2023-02-03T22:29:10.874Z,98333.50
2023-02-03T22:34:12.114Z,98324.03
2023-02-03T22:39:13.384Z,98315.38
2023-02-03T22:44:16.108Z,98317.84
2023-02-03T22:49:17.370Z,98342.69
2023-02-03T22:54:18.584Z,98351.38
2023-02-03T22:59:19.830Z,98362.44
2023-02-03T23:04:22.856Z,98356.53
2023-02-03T23:09:24.151Z,98366.03
2023-02-03T23:14:25.379Z,98359.16
2023-02-03T23:19:27.194Z,98352.31
2023-02-03T23:24:28.585Z,98355.75
2023-02-03T23:29:29.874Z,98372.44
2023-02-03T23:34:50.202Z,98367.13
2023-02-03T23:39:51.448Z,98359.63
2023-02-03T23:44:52.703Z,98362.84
2023-02-03T23:49:54.068Z,98367.44
2023-02-03T23:54:55.555Z,98377.56
2023-02-03T23:59:56.823Z,98376.81
